Time,TemperatureF,DewpointF,PressureIn,WindDirection,WindDirectionDegrees,WindSpeedMPH,WindSpeedGustMPH,Humidity,HourlyPrecipIn,Conditions,Clouds,dailyrainin,SoftwareType,DateUTC
2013-09-08 00:13:00,74.0,67.0,29.33,North,360,0.0,0.0,79,0.00,,,0.00,,2013-09-08 05:13:00,
2013-09-08 00:23:00,73.0,66.0,29.33,North,360,0.0,0.0,79,0.00,,,0.00,,2013-09-08 05:23:00,
2013-09-08 00:52:00,72.0,66.0,29.34,North,360,0.0,0.0,81,0.00,,,0.00,,2013-09-08 05:52:00,
2013-09-08 01:13:00,73.0,67.0,29.34,SW,225,0.0,0.0,81,0.00,,,0.00,,2013-09-08 06:13:00,
2013-09-08 01:21:00,72.0,66.0,29.34,NW,315,0.0,0.0,81,0.00,,,0.00,,2013-09-08 06:21:00,
2013-09-08 01:33:00,72.0,66.0,29.34,NW,315,0.0,0.0,81,0.00,,,0.00,,2013-09-08 06:33:00,
2013-09-08 01:42:00,72.0,66.0,29.34,NW,315,0.0,0.0,81,0.00,,,0.00,,2013-09-08 06:42:00,
2013-09-08 01:53:00,72.0,66.0,29.33,North,360,0.0,0.0,82,0.00,,,0.00,,2013-09-08 06:53:00,
2013-09-08 02:12:00,71.0,66.0,29.34,North,360,0.0,0.0,83,0.00,,,0.00,,2013-09-08 07:12:00,
2013-09-08 02:23:00,71.0,66.0,29.34,North,360,0.0,0.0,83,0.00,,,0.00,,2013-09-08 07:23:00,
2013-09-08 02:42:00,71.0,66.0,29.34,North,360,0.0,0.0,84,0.00,,,0.00,,2013-09-08 07:42:00,
2013-09-08 02:52:00,71.0,66.0,29.34,North,360,0.0,0.0,85,0.00,,,0.00,,2013-09-08 07:52:00,
2013-09-08 03:11:00,71.0,66.0,29.34,North,360,0.0,0.0,85,0.00,,,0.00,,2013-09-08 08:11:00,
2013-09-08 03:22:00,71.0,66.0,29.34,North,360,0.0,0.0,85,0.00,,,0.00,,2013-09-08 08:22:00,
2013-09-08 03:52:00,70.0,66.0,29.34,North,360,0.0,0.0,86,0.00,,,0.00,,2013-09-08 08:52:00,
2013-09-08 04:11:00,70.0,66.0,29.34,North,360,0.0,0.0,87,0.00,,,0.00,,2013-09-08 09:11:00,
2013-09-08 04:22:00,70.0,67.0,29.34,North,360,0.0,0.0,89,0.00,,,0.00,,2013-09-08 09:22:00,
2013-09-08 04:54:00,69.0,66.0,29.35,North,360,0.0,0.0,90,0.00,,,0.00,,2013-09-08 09:54:00,
2013-09-08 05:12:00,69.0,66.0,29.34,North,360,0.0,0.0,90,0.00,,,0.00,,2013-09-08 10:12:00,
2013-09-08 05:23:00,69.0,66.0,29.34,North,360,0.0,0.0,90,0.00,,,0.00,,2013-09-08 10:23:00,
2013-09-08 05:42:00,69.0,66.0,29.35,North,360,0.0,0.0,91,0.00,,,0.00,,2013-09-08 10:42:00,
2013-09-08 05:53:00,69.0,66.0,29.35,North,360,0.0,0.0,91,0.00,,,0.00,,2013-09-08 10:53:00,
2013-09-08 06:12:00,69.0,67.0,29.35,NE,45,0.0,0.0,92,0.00,,,0.00,,2013-09-08 11:12:00,
2013-09-08 06:21:00,68.0,66.0,29.36,NE,45,0.0,0.0,92,0.00,,,0.00,,2013-09-08 11:21:00,
2013-09-08 06:42:00,68.0,66.0,29.36,NE,45,0.0,0.0,92,0.00,,,0.00,,2013-09-08 11:42:00,
2013-09-08 06:52:00,68.0,66.0,29.36,NE,45,0.0,0.0,93,0.00,,,0.00,,2013-09-08 11:52:00,
2013-09-08 07:12:00,68.0,66.0,29.36,SW,225,0.0,0.0,93,0.00,,,0.00,,2013-09-08 12:12:00,
2013-09-08 07:22:00,68.0,66.0,29.37,North,360,0.0,0.0,93,0.00,,,0.00,,2013-09-08 12:22:00,
2013-09-08 07:42:00,68.0,66.0,29.37,North,360,0.0,0.0,94,0.00,,,0.00,,2013-09-08 12:42:00,
2013-09-08 07:52:00,69.0,68.0,29.37,West,270,0.0,0.0,96,0.00,,,0.00,,2013-09-08 12:52:00,
2013-09-08 08:12:00,71.0,70.0,29.37,North,360,0.0,0.0,97,0.00,,,0.00,,2013-09-08 13:12:00,
2013-09-08 08:22:00,72.0,71.0,29.37,South,180,0.0,0.0,97,0.00,,,0.00,,2013-09-08 13:22:00,
2013-09-08 08:42:00,73.0,72.0,29.38,North,360,0.0,0.0,96,0.00,,,0.00,,2013-09-08 13:42:00,
2013-09-08 19:52:00,90.0,57.0,29.26,North,360,0.0,0.0,33,0.00,,,0.00,,2013-09-09 00:52:00,
2013-09-08 20:21:00,86.0,59.0,29.26,North,360,0.0,0.0,40,0.00,,,0.00,,2013-09-09 01:21:00,
2013-09-08 20:42:00,82.0,61.0,29.27,South,180,0.0,0.0,50,0.00,,,0.00,,2013-09-09 01:42:00,
2013-09-08 20:52:00,81.0,63.0,29.27,North,360,0.0,0.0,54,0.00,,,0.00,,2013-09-09 01:52:00,
2013-09-08 21:11:00,80.0,63.0,29.27,South,180,0.0,0.0,56,0.00,,,0.00,,2013-09-09 02:11:00,
2013-09-08 21:22:00,80.0,63.0,29.28,South,180,0.0,0.0,56,0.00,,,0.00,,2013-09-09 02:22:00,
2013-09-08 21:32:00,80.0,63.0,29.28,South,180,0.0,0.0,56,0.00,,,0.00,,2013-09-09 02:32:00,
2013-09-08 21:42:00,80.0,63.0,29.28,South,180,0.0,0.0,56,0.00,,,0.00,,2013-09-09 02:42:00,
2013-09-08 21:52:00,78.0,64.0,29.29,North,360,0.0,0.0,63,0.00,,,0.00,,2013-09-09 02:52:00,
2013-09-08 22:12:00,77.0,65.0,29.30,North,360,0.0,0.0,66,0.00,,,0.00,,2013-09-09 03:12:00,
2013-09-08 22:22:00,76.0,65.0,29.31,North,360,0.0,0.0,69,0.00,,,0.00,,2013-09-09 03:22:00,
2013-09-08 22:44:00,76.0,66.0,29.30,North,360,0.0,0.0,71,0.00,,,0.00,,2013-09-09 03:44:00,
2013-09-08 22:55:00,75.0,66.0,29.31,North,360,0.0,0.0,73,0.00,,,0.00,,2013-09-09 03:55:00,
2013-09-08 23:14:00,75.0,67.0,29.31,North,360,0.0,0.0,76,0.00,,,0.00,,2013-09-09 04:14:00,
2013-09-08 23:24:00,75.0,67.0,29.31,North,360,0.0,0.0,76,0.00,,,0.00,,2013-09-09 04:24:00,
2013-09-08 23:43:00,74.0,66.0,29.31,North,360,0.0,0.0,77,0.00,,,0.00,,2013-09-09 04:43:00,
2013-09-08 23:54:00,74.0,67.0,29.31,North,360,0.0,0.0,79,0.00,,,0.00,,2013-09-09 04:54:00,